Flight Track Log - Related Links

Times and Time Zones

All times are in EDT time to prevent confusion due to time zone crossing. See the DKT111 flight status page for this flight to view local times or setup timezone preferences in your user account.

Time Position Orientation Groundspeed Altitude Reporting Facility
EDT Latitude Longitude Course Direction KTS MPH feet Rate Location/Type
Fri 10:44:46 46.8306 -98.5786 149° Southeast 140 161 3,900  Level Minneapolis Center
Fri 10:45:48 46.7944 -98.5425 146° Southeast 150 173 4,500 484 Climbing Minneapolis Center
Fri 10:46:50 46.7569 -98.5067 147° Southeast 157 181 4,900 581 Climbing Minneapolis Center
Fri 10:47:52 46.7064 -98.4714 154° Southeast 166 191 5,700 629 Climbing Minneapolis Center
Fri 10:48:54 46.6628 -98.4472 159° South 167 192 6,200 484 Climbing Minneapolis Center
Fri 10:49:00 46.6668 -98.5168 157° South  Level Estimated
Fri 10:49:56 46.6161 -98.4231 160° South 174 200 6,700  Level Minneapolis Center
Fri 10:50:58 46.5694 -98.3925 156° South 179 206 6,900 144 Climbing Minneapolis Center
Fri 10:52:01 46.5181 -98.3664 161° South 190 219 7,000  Climbing Minneapolis Center
Fri 10:53:03 46.4653 -98.3375 159° South 199 229 6,900 -48 Descending Minneapolis Center
Fri 10:54:05 46.4017 -98.3006 158° South 203 234 6,900  Level Minneapolis Center
Fri 10:55:07 46.3483 -98.2711 159° South 206 237 6,900  Level Minneapolis Center
Fri 10:56:09 46.2964 -98.2425 159° South 202 232 6,900  Level Minneapolis Center
Fri 10:57:11 46.2428 -98.2147 160° South 203 234 6,900 48 Level Minneapolis Center
Fri 10:58:13 46.1911 -98.1869 160° South 201 231 7,000 48 Climbing Minneapolis Center
Fri 10:59:15 46.1381 -98.1606 161° South 201 231 7,000  Level Minneapolis Center
Fri 11:00:17 46.0767 -98.1283 160° South 202 232 7,000  Level Minneapolis Center
Fri 11:01:19 46.0183 -98.1014 162° South 203 234 7,000  Level Minneapolis Center
Fri 11:02:21 45.9708 -98.0747 159° South 196 226 7,000  Level Minneapolis Center
Fri 11:03:23 45.9161 -98.0422 158° South 201 231 7,000  Level Minneapolis Center
Fri 11:04:25 45.8619 -98.0114 158° South 201 231 7,000  Level Minneapolis Center
Fri 11:05:52 45.7853 -97.9719 160° South 174 200 7,000  Level Minneapolis Center
Fri 11:06:54 45.7292 -97.9464 162° South 198 228 7,000 48 Level Minneapolis Center
Fri 11:07:56 45.6847 -97.9203 158° South 196 226 7,100  Climbing Minneapolis Center
Fri 11:09:23 45.6056 -97.8714 157° South 242 278 7,000 -40 Descending Minneapolis Center
Fri 11:10:25 45.5506 -97.8447 161° South 214 246 7,000  Level Minneapolis Center
Fri 11:11:27 45.5014 -97.8108 154° Southeast 202 232 7,000  Level Minneapolis Center
Fri 11:12:29 45.4419 -97.7722 155° Southeast 200 230 7,000  Level Minneapolis Center
Fri 11:13:31 45.3917 -97.7411 157° South 198 228 7,000 -49 Level Minneapolis Center
Fri 11:14:32 45.3372 -97.7156 162° South 203 234 6,900  Descending Minneapolis Center
Fri 11:15:34 45.2878 -97.6858 157° South 199 229 7,000 48 Climbing Minneapolis Center
Fri 11:16:36 45.2356 -97.6556 158° South 200 230 7,000  Level Minneapolis Center
Fri 11:17:38 45.1839 -97.6242 157° South 202 232 7,000  Level Minneapolis Center
Fri 11:18:40 45.1239 -97.5867 156° South 199 229 7,000 -44 Level Minneapolis Center
Fri 11:19:55 45.0600 -97.5542 160° South 201 231 6,900  Descending Minneapolis Center
Fri 11:20:57 45.0075 -97.5267 160° South 202 232 7,000 48 Climbing Minneapolis Center
Fri 11:21:59 44.9547 -97.4989 160° South 202 232 7,000  Level Minneapolis Center
Fri 11:23:13 44.8914 -97.4672 160° South 202 232 7,000 44 Level Minneapolis Center
Fri 11:24:15 44.8392 -97.4378 158° South 201 231 7,100 48 Climbing Minneapolis Center
Fri 11:25:17 44.7786 -97.3975 155° Southeast 203 234 7,100 -48 Level Minneapolis Center
Fri 11:26:19 44.7300 -97.3625 153° Southeast 200 230 7,000 -48 Descending Minneapolis Center
Fri 11:27:21 44.6794 -97.3314 156° South 198 228 7,000  Level Minneapolis Center
Fri 11:28:23 44.6261 -97.3044 160° South 200 230 7,000  Level Minneapolis Center
Fri 11:29:25 44.5775 -97.2736 156° South 196 226 7,000  Level Minneapolis Center
Fri 11:30:27 44.5253 -97.2461 159° South 199 229 7,000 -48 Level Minneapolis Center
Fri 11:31:29 44.4631 -97.2150 160° South 199 229 6,900  Descending Minneapolis Center
Fri 11:32:31 44.4131 -97.1878 159° South 197 227 7,000 48 Climbing Minneapolis Center
Fri 11:33:33 44.3633 -97.1575 156° South 195 224 7,000 48 Level Minneapolis Center
Fri 11:34:35 44.3128 -97.1350 162° South 193 222 7,100  Climbing Minneapolis Center
Fri 11:35:37 44.2611 -97.1086 160° South 195 224 7,000 -48 Descending Minneapolis Center
Fri 11:36:39 44.1992 -97.0758 159° South 197 227 7,000  Level Minneapolis Center
Fri 11:37:41 44.1469 -97.0494 160° South 200 230 7,000  Level Minneapolis Center
Fri 11:38:43 44.0967 -97.0228 159° South 197 227 7,000  Level Minneapolis Center
Fri 11:39:45 44.0492 -96.9897 153° Southeast 195 224 7,000  Level Minneapolis Center
Fri 11:40:47 44.0008 -96.9558 153° Southeast 194 223 7,000  Level Minneapolis Center
Fri 11:41:49 43.9522 -96.9219 153° Southeast 195 224 7,000 -145 Level Minneapolis Center
Fri 11:42:51 43.8942 -96.8814 153° Southeast 195 224 6,700 -484 Descending Minneapolis Center
Fri 11:43:53 43.8411 -96.8481 156° South 200 230 6,000 -683 Descending Minneapolis Center
Fri 11:44:54 43.7864 -96.8169 158° South 207 238 5,300 -683 Descending Minneapolis Center
Fri 11:45:56 43.7322 -96.7872 158° South 210 242 4,600 -774 Descending Minneapolis Center
Fri 11:46:58 43.6797 -96.7639 162° South 207 238 3,700 -871 Descending Minneapolis Center
Fri 11:48:00 43.6306 -96.7411 161° South 198 228 2,800 -672 Descending Minneapolis Center
Fri 11:49:03 43.5783 -96.7144 160° South 183 211 2,300 -336 Descending Minneapolis Center
Fri 11:50:05 43.5378 -96.6978 163° South 179 206 2,100 -194 Descending Minneapolis Center
Fri 11:52:00 43.5820 -96.7419 324° Northwest  Level Estimated

Login

Don't have an account? Register now (free) for customized features, flight alerts, and more!